Time;durP1;ratioP1;P1;durP2;ratioP2;P2;SDS_P1;SDS_P2;PMS_P1;PMS_P2;Temp;Humidity;BMP_temperature;BMP_pressure;BME280_temperature;BME280_humidity;BME280_pressure;Samples;Min_cycle;Max_cycle;Signal;HPM_P1;HPM_P2
2021/05/21 00:01:40;;;;;;;8.25;4.70;;;;;;;8.60;72.01;101366.59;5066859;28;20538;-80
2021/05/21 00:04:06;;;;;;;6.65;4.15;;;;;;;8.55;72.75;101360.28;5086805;28;20020;-82
2021/05/21 00:06:32;;;;;;;5.95;4.00;;;;;;;8.52;72.48;101356.22;5067216;28;20058;-82
2021/05/21 00:08:58;;;;;;;6.22;4.32;;;;;;;8.51;72.70;101362.59;5079103;28;20520;-84
2021/05/21 00:11:24;;;;;;;6.88;4.65;;;;;;;8.54;72.62;101353.31;5064117;28;20021;-77
2021/05/21 00:13:49;;;;;;;8.07;4.03;;;;;;;8.55;72.44;101361.13;5085611;28;20032;-80
2021/05/21 00:16:15;;;;;;;7.30;4.60;;;;;;;8.56;72.85;101353.91;5074333;28;20029;-81
2021/05/21 00:18:40;;;;;;;6.78;4.30;;;;;;;8.49;73.79;101351.31;5077630;28;20082;-80
2021/05/21 00:21:06;;;;;;;10.00;4.47;;;;;;;8.55;72.93;101353.09;5067276;28;20043;-80
2021/05/21 00:23:32;;;;;;;8.25;4.57;;;;;;;8.61;72.42;101344.19;5067636;28;20434;-77
2021/05/21 00:25:57;;;;;;;7.78;4.30;;;;;;;8.64;71.97;101343.78;5066114;28;20024;-80
2021/05/21 00:28:23;;;;;;;5.15;3.80;;;;;;;8.69;71.74;101333.25;5067628;28;20032;-79
2021/05/21 00:30:48;;;;;;;6.13;4.00;;;;;;;8.71;71.72;101333.84;5070350;28;20394;-80
2021/05/21 00:33:14;;;;;;;7.60;4.10;;;;;;;8.72;71.67;101332.78;5066080;28;20034;-82
2021/05/21 00:35:39;;;;;;;8.50;3.90;;;;;;;8.75;71.23;101329.69;5069361;28;20073;-82
2021/05/21 00:38:06;;;;;;;5.75;3.70;;;;;;;8.76;71.06;101317.94;5064381;28;20043;-82
2021/05/21 00:40:32;;;;;;;5.68;3.50;;;;;;;8.76;71.29;101312.59;5064549;28;20028;-80
2021/05/21 00:42:57;;;;;;;6.63;3.83;;;;;;;8.76;71.27;101311.78;5063378;28;20549;-80
2021/05/21 00:45:23;;;;;;;6.47;4.13;;;;;;;8.76;71.31;101309.94;5079845;28;20028;-80
2021/05/21 00:47:48;;;;;;;5.72;3.90;;;;;;;8.74;71.68;101314.69;5080924;28;20469;-80
2021/05/21 00:50:14;;;;;;;7.75;3.88;;;;;;;8.73;71.77;101306.91;5063211;28;20055;-81
2021/05/21 00:52:43;;;;;;;7.05;3.67;;;;;;;8.77;71.58;101313.41;5068830;28;20052;-80
2021/05/21 00:55:09;;;;;;;4.75;3.30;;;;;;;8.79;71.23;101306.00;5077319;28;20153;-81
2021/05/21 00:57:35;;;;;;;5.60;3.78;;;;;;;8.82;71.23;101304.75;5066386;28;20020;-81
2021/05/21 01:00:03;;;;;;;4.32;3.20;;;;;;;8.88;70.74;101301.19;5062796;28;20028;-80
2021/05/21 01:02:28;;;;;;;7.53;4.18;;;;;;;8.92;70.21;101294.34;5072389;28;20131;-77
2021/05/21 01:04:54;;;;;;;3.95;3.38;;;;;;;8.88;70.45;101288.63;5069971;28;20120;-77
2021/05/21 01:07:19;;;;;;;4.65;3.25;;;;;;;8.88;70.73;101293.16;5068263;28;20097;-77
2021/05/21 01:09:45;;;;;;;5.82;3.35;;;;;;;8.89;70.75;101273.41;5086641;28;20047;-77
2021/05/21 01:12:11;;;;;;;4.22;2.95;;;;;;;8.92;70.56;101272.97;5063841;28;20032;-77
2021/05/21 01:14:53;;;;;;;6.13;2.97;;;;;;;8.90;70.29;101267.84;5084420;28;20024;-78
2021/05/21 01:17:21;;;;;;;4.90;3.15;;;;;;;8.96;70.35;101261.59;5083741;28;20024;-78
2021/05/21 01:19:47;;;;;;;7.00;3.53;;;;;;;8.98;70.67;101253.38;5069261;28;20044;-77
2021/05/21 01:22:14;;;;;;;5.60;3.63;;;;;;;8.94;71.45;101244.16;5061218;28;20033;-78
2021/05/21 01:24:40;;;;;;;5.97;3.65;;;;;;;8.90;71.81;101243.81;5062128;28;20032;-77
2021/05/21 01:27:08;;;;;;;8.60;4.47;;;;;;;8.90;72.07;101243.00;5068773;28;21949;-78
2021/05/21 01:29:34;;;;;;;7.43;3.80;;;;;;;8.90;71.86;101241.13;5065937;28;20409;-77
2021/05/21 01:32:01;;;;;;;4.65;3.38;;;;;;;8.90;71.90;101233.13;5066075;28;20024;-77
2021/05/21 01:34:26;;;;;;;5.20;3.38;;;;;;;8.91;71.88;101225.91;5058124;28;20059;-77
2021/05/21 01:36:52;;;;;;;6.75;3.47;;;;;;;8.98;71.24;101226.66;5065907;28;20060;-77
2021/05/21 01:39:18;;;;;;;5.05;3.05;;;;;;;8.99;71.50;101220.28;5077042;28;20668;-77
2021/05/21 01:41:43;;;;;;;4.38;2.78;;;;;;;9.03;71.24;101216.09;5065923;28;20028;-77
2021/05/21 01:44:13;;;;;;;6.47;3.42;;;;;;;9.08;71.17;101214.38;5057660;28;20028;-77
2021/05/21 01:46:39;;;;;;;5.95;3.08;;;;;;;9.12;70.83;101209.38;5065686;28;20371;-77
2021/05/21 01:49:05;;;;;;;6.78;3.20;;;;;;;9.07;71.37;101202.03;5076699;28;20178;-77
2021/05/21 01:51:32;;;;;;;6.00;3.17;;;;;;;9.09;71.30;101199.16;5063763;28;20023;-77
2021/05/21 01:54:13;;;;;;;5.50;3.15;;;;;;;9.03;72.67;101197.38;5080051;28;20159;-77
2021/05/21 01:56:39;;;;;;;3.95;2.58;;;;;;;9.08;71.30;101190.31;5063244;28;20036;-77
2021/05/21 01:59:04;;;;;;;4.70;2.90;;;;;;;9.14;71.12;101193.91;5080661;28;20236;-78
2021/05/21 02:01:30;;;;;;;4.93;2.70;;;;;;;9.16;70.92;101193.72;5060480;28;20039;-77
2021/05/21 02:03:59;;;;;;;4.13;2.72;;;;;;;8.86;74.15;101199.06;5079829;28;20058;-77
2021/05/21 02:06:26;;;;;;;4.38;2.90;;;;;;;8.66;75.15;101197.44;5075637;28;20027;-77
2021/05/21 02:08:52;;;;;;;6.95;2.70;;;;;;;8.89;73.23;101201.28;5065116;28;20016;-77
2021/05/21 02:11:18;;;;;;;6.03;2.65;;;;;;;8.93;72.91;101187.22;5063916;28;20028;-77
2021/05/21 02:13:43;;;;;;;3.28;2.63;;;;;;;9.06;72.17;101178.22;5081354;28;20020;-77
2021/05/21 02:16:09;;;;;;;3.00;2.70;;;;;;;9.15;71.57;101176.03;5063337;28;20035;-77
2021/05/21 02:18:34;;;;;;;6.13;3.05;;;;;;;9.17;71.78;101171.28;5065735;28;20024;-77
2021/05/21 02:21:00;;;;;;;4.45;2.65;;;;;;;9.22;71.34;101161.53;5077730;28;20028;-77
2021/05/21 02:23:26;;;;;;;7.90;3.03;;;;;;;9.21;71.78;101161.75;5077417;28;20039;-78
2021/05/21 02:25:51;;;;;;;3.17;2.88;;;;;;;9.24;71.67;101162.13;5058966;28;20115;-77
2021/05/21 02:28:17;;;;;;;3.97;2.88;;;;;;;9.29;71.38;101164.09;5062696;28;20089;-77
2021/05/21 02:30:42;;;;;;;5.13;2.65;;;;;;;9.31;71.60;101164.69;5056360;28;20023;-77
2021/05/21 02:33:08;;;;;;;3.55;2.70;;;;;;;9.24;72.53;101150.59;5059810;28;20039;-77
2021/05/21 02:35:33;;;;;;;3.47;2.33;;;;;;;9.28;72.25;101152.59;5061719;28;20039;-78
2021/05/21 02:37:59;;;;;;;6.03;2.88;;;;;;;9.35;71.82;101147.16;5075958;28;20366;-77
2021/05/21 02:40:25;;;;;;;4.13;2.70;;;;;;;9.35;72.19;101145.28;5075406;28;20021;-77
2021/05/21 02:42:51;;;;;;;6.10;3.28;;;;;;;9.41;71.50;101142.75;5067271;28;20077;-77
2021/05/21 02:45:17;;;;;;;5.28;2.97;;;;;;;9.43;71.81;101136.09;5078054;28;20589;-77
2021/05/21 02:47:43;;;;;;;5.30;3.13;;;;;;;9.47;71.83;101117.72;5081496;28;20043;-77
2021/05/21 02:50:09;;;;;;;4.82;3.13;;;;;;;9.48;72.19;101103.31;5060727;28;20086;-77
2021/05/21 02:52:35;;;;;;;5.75;3.17;;;;;;;9.45;72.90;101096.56;5083808;28;20110;-77
2021/05/21 02:55:01;;;;;;;4.35;3.25;;;;;;;9.37;73.62;101095.06;5063532;28;20116;-77
2021/05/21 02:57:26;;;;;;;4.45;2.83;;;;;;;9.47;72.83;101089.13;5067007;28;20024;-77
2021/05/21 02:59:55;;;;;;;4.97;3.20;;;;;;;9.52;72.57;101093.81;5064954;28;20024;-77
2021/05/21 03:02:22;;;;;;;7.75;3.42;;;;;;;9.55;72.38;101087.97;5081619;28;20605;-77
2021/05/21 03:04:47;;;;;;;4.72;3.30;;;;;;;9.56;72.53;101089.59;5070138;28;20036;-77
2021/05/21 03:07:13;;;;;;;4.95;3.15;;;;;;;9.47;73.63;101074.94;5060025;28;20036;-78
2021/05/21 03:09:39;;;;;;;5.22;3.20;;;;;;;9.44;73.82;101064.72;5058272;28;20082;-77
2021/05/21 03:12:05;;;;;;;5.47;3.45;;;;;;;9.47;73.24;101062.38;5059090;28;20051;-77
2021/05/21 03:14:30;;;;;;;6.57;3.47;;;;;;;9.47;73.15;101064.25;5076040;28;20104;-77
2021/05/21 03:16:56;;;;;;;6.15;3.55;;;;;;;9.54;72.96;101067.63;5060123;28;20036;-77
2021/05/21 03:19:21;;;;;;;6.30;3.58;;;;;;;9.58;72.66;101063.44;5067496;28;20032;-77
2021/05/21 03:21:47;;;;;;;4.85;3.35;;;;;;;9.48;73.80;101063.19;5060800;28;20020;-77
2021/05/21 03:24:13;;;;;;;5.65;3.47;;;;;;;9.48;73.64;101068.53;5062505;28;20111;-77
2021/05/21 03:26:38;;;;;;;3.78;3.25;;;;;;;9.50;73.36;101066.44;5082910;28;20024;-77
2021/05/21 03:29:04;;;;;;;3.45;3.00;;;;;;;9.51;73.16;101068.88;5082044;28;20727;-77
2021/05/21 03:31:30;;;;;;;4.57;3.42;;;;;;;9.54;73.18;101067.63;5066231;28;20428;-77
2021/05/21 03:33:55;;;;;;;4.95;3.60;;;;;;;9.46;74.79;101065.28;5079454;28;20024;-77
2021/05/21 03:36:21;;;;;;;5.10;3.53;;;;;;;9.41;75.29;101057.97;5084350;28;20625;-77
2021/05/21 03:38:46;;;;;;;6.25;3.83;;;;;;;9.55;74.36;101066.56;5080187;28;20055;-77
2021/05/21 03:41:12;;;;;;;5.47;3.65;;;;;;;9.52;75.43;101056.34;5060425;28;20043;-77
2021/05/21 03:43:37;;;;;;;6.88;3.70;;;;;;;9.62;74.20;101051.22;5078424;28;20397;-77
2021/05/21 03:46:03;;;;;;;4.35;3.88;;;;;;;9.70;73.98;101050.88;5066871;28;20024;-77
2021/05/21 03:48:29;;;;;;;5.47;4.07;;;;;;;9.75;74.69;101050.16;5062346;28;20513;-77
2021/05/21 03:50:55;;;;;;;3.95;3.55;;;;;;;9.84;74.05;101049.53;5066543;28;20069;-77
2021/05/21 03:53:21;;;;;;;4.97;3.60;;;;;;;9.92;73.56;101048.38;5070159;28;20503;-77
2021/05/21 03:55:46;;;;;;;5.40;3.97;;;;;;;9.88;74.60;101053.41;5068830;28;20493;-77
2021/05/21 03:58:12;;;;;;;5.38;3.75;;;;;;;9.97;74.02;101057.31;5082178;28;20024;-77
2021/05/21 04:00:38;;;;;;;4.60;3.83;;;;;;;10.06;73.73;101055.09;5064498;28;20028;-77
2021/05/21 04:03:07;;;;;;;5.50;4.20;;;;;;;10.10;73.61;101056.25;5066640;28;20027;-77
2021/05/21 04:05:33;;;;;;;5.93;4.25;;;;;;;10.10;73.66;101058.13;5057525;28;20386;-77
2021/05/21 04:07:59;;;;;;;5.40;3.88;;;;;;;10.09;74.41;101054.63;5059407;28;20038;-77
2021/05/21 04:10:26;;;;;;;4.43;3.80;;;;;;;10.16;73.57;101052.63;5078535;28;20494;-77
2021/05/21 04:12:52;;;;;;;5.13;4.10;;;;;;;10.12;74.37;101039.94;5066206;28;20028;-77
2021/05/21 04:15:18;;;;;;;5.18;3.83;;;;;;;10.17;73.85;101035.50;5073367;28;20024;-77
2021/05/21 04:17:44;;;;;;;4.95;3.55;;;;;;;10.23;73.60;101039.09;5068283;28;20048;-77
2021/05/21 04:20:13;;;;;;;4.40;3.90;;;;;;;10.26;73.36;101035.97;5064742;28;20115;-77
2021/05/21 04:22:38;;;;;;;5.05;4.10;;;;;;;10.31;73.02;101030.72;5077148;28;20441;-77
2021/05/21 04:25:04;;;;;;;5.28;3.90;;;;;;;10.38;72.59;101019.84;5080851;28;20033;-77
2021/05/21 04:27:30;;;;;;;6.07;3.83;;;;;;;10.34;73.52;101024.06;5070917;28;20055;-77
2021/05/21 04:29:55;;;;;;;5.18;3.60;;;;;;;10.44;72.79;101019.72;5066869;28;20583;-78
2021/05/21 04:32:21;;;;;;;4.20;3.38;;;;;;;10.45;72.79;101017.84;5078504;28;20025;-77
2021/05/21 04:34:47;;;;;;;4.93;3.80;;;;;;;10.51;72.71;101014.19;5067062;28;20024;-77
2021/05/21 04:37:12;;;;;;;5.78;4.13;;;;;;;10.61;72.28;101010.91;5064499;28;20051;-78
2021/05/21 04:39:38;;;;;;;5.05;3.55;;;;;;;10.71;71.76;101024.44;5074104;28;20037;-78
2021/05/21 04:42:04;;;;;;;8.13;3.80;;;;;;;10.76;71.84;101011.94;5059940;28;20115;-78
2021/05/21 04:44:29;;;;;;;4.68;3.60;;;;;;;10.88;71.38;100993.13;5083078;28;20032;-78
2021/05/21 04:46:55;;;;;;;5.10;3.63;;;;;;;11.03;70.73;100998.72;5068967;28;20040;-78
2021/05/21 04:49:33;;;;;;;6.32;3.97;;;;;;;11.10;70.56;101007.41;5079666;28;20044;-78
2021/05/21 04:52:08;;;;;;;4.13;3.58;;;;;;;11.19;70.15;100997.91;5067142;28;20033;-78
2021/05/21 04:54:35;;;;;;;5.32;3.60;;;;;;;11.23;70.16;100989.34;5062568;28;20057;-78
2021/05/21 04:57:01;;;;;;;5.82;3.55;;;;;;;11.25;70.09;100988.03;5080774;28;20080;-78
2021/05/21 04:59:28;;;;;;;4.13;3.70;;;;;;;11.29;70.03;100991.84;5077143;28;20251;-78
2021/05/21 05:01:54;;;;;;;4.80;3.67;;;;;;;11.23;70.36;100989.34;5079756;28;20103;-78
2021/05/21 05:04:20;;;;;;;6.03;3.80;;;;;;;11.10;70.90;100991.31;5066039;28;20165;-78
2021/05/21 05:06:46;;;;;;;5.05;3.30;;;;;;;10.94;71.95;100984.09;5078179;28;20031;-78
2021/05/21 05:09:12;;;;;;;7.00;3.58;;;;;;;11.20;71.05;100970.03;5066879;28;20587;-78
2021/05/21 05:11:40;;;;;;;4.15;3.75;;;;;;;11.34;70.58;100973.16;5063518;28;20203;-78
2021/05/21 05:14:07;;;;;;;6.57;3.95;;;;;;;11.17;71.17;100969.72;5080147;28;20027;-78
2021/05/21 05:16:33;;;;;;;3.35;2.92;;;;;;;11.05;70.40;100969.78;5059657;28;20063;-77
2021/05/21 05:18:58;;;;;;;3.88;2.95;;;;;;;11.22;70.82;100960.91;5059780;28;20402;-78
2021/05/21 05:21:24;;;;;;;4.43;3.20;;;;;;;11.34;70.11;100953.56;5080206;28;20031;-78
2021/05/21 05:23:50;;;;;;;3.90;3.10;;;;;;;11.25;70.67;100955.03;5078918;28;20035;-76
2021/05/21 05:26:17;;;;;;;4.28;2.90;;;;;;;11.44;69.32;100954.50;5063673;28;20503;-77
2021/05/21 05:28:43;;;;;;;3.45;3.15;;;;;;;11.36;69.09;100946.91;5059071;28;20036;-78
2021/05/21 05:31:09;;;;;;;4.28;3.15;;;;;;;11.80;68.32;100939.69;5065990;28;20051;-78
2021/05/21 05:33:35;;;;;;;3.55;3.10;;;;;;;12.42;66.86;100945.69;5068812;28;20049;-78
2021/05/21 05:36:02;;;;;;;5.55;2.83;;;;;;;12.68;66.24;100937.56;5057469;28;20032;-78
2021/05/21 05:38:28;;;;;;;3.53;2.78;;;;;;;12.70;65.02;100940.00;5075805;28;20399;-78
2021/05/21 05:40:54;;;;;;;8.40;2.95;;;;;;;12.66;64.80;100923.56;5059440;28;20032;-78
2021/05/21 05:43:19;;;;;;;3.80;3.40;;;;;;;12.70;65.36;100924.69;5064510;28;20031;-78
2021/05/21 05:45:45;;;;;;;3.55;2.90;;;;;;;12.59;65.69;100924.88;5075124;28;20024;-78
2021/05/21 05:48:10;;;;;;;3.90;3.03;;;;;;;12.67;64.71;100927.06;5077893;28;20032;-78
2021/05/21 05:50:36;;;;;;;3.33;3.03;;;;;;;12.95;63.61;100917.88;5077786;28;20069;-78
2021/05/21 05:53:01;;;;;;;3.55;2.75;;;;;;;13.50;62.51;100917.38;5077376;28;20095;-78
2021/05/21 05:55:27;;;;;;;7.15;3.30;;;;;;;13.80;60.87;100910.47;5060027;28;20058;-78
2021/05/21 05:57:52;;;;;;;3.55;3.03;;;;;;;14.04;60.31;100898.16;5080284;28;20036;-78
2021/05/21 06:00:18;;;;;;;4.68;2.50;;;;;;;14.11;60.34;100900.56;5079415;28;20028;-79
2021/05/21 06:02:44;;;;;;;5.70;2.80;;;;;;;13.76;60.91;100893.22;5059744;28;20107;-77
2021/05/21 06:05:10;;;;;;;2.78;2.30;;;;;;;13.74;60.69;100893.50;5077423;28;20085;-75
2021/05/21 06:07:36;;;;;;;2.10;1.70;;;;;;;13.44;61.27;100894.19;5075450;28;20158;-75
2021/05/21 06:10:03;;;;;;;4.93;3.50;;;;;;;13.68;61.21;100881.09;5074526;28;21895;-78
2021/05/21 06:12:29;;;;;;;3.65;2.83;;;;;;;13.24;62.34;100888.72;5059733;28;20123;-75
2021/05/21 06:14:54;;;;;;;2.97;2.47;;;;;;;13.42;61.97;100876.69;5081762;28;20169;-78
2021/05/21 06:17:20;;;;;;;4.47;2.85;;;;;;;13.39;61.83;100886.09;5061722;28;20020;-78
2021/05/21 06:19:47;;;;;;;5.22;2.50;;;;;;;13.54;61.18;100880.78;5060325;28;20048;-77
2021/05/21 06:22:12;;;;;;;3.35;2.70;;;;;;;14.01;60.64;100879.81;5078094;28;20031;-78
2021/05/21 06:24:39;;;;;;;3.65;2.67;;;;;;;14.24;60.21;100875.00;5067154;28;20036;-78
2021/05/21 06:27:24;;;;;;;3.25;2.75;;;;;;;13.48;62.26;100873.78;5060184;28;20075;-76
2021/05/21 06:29:50;;;;;;;4.22;2.70;;;;;;;13.60;61.98;100863.56;5065195;28;20035;-77
2021/05/21 06:32:16;;;;;;;4.97;2.85;;;;;;;13.12;63.24;100862.03;5061552;28;20042;-77
2021/05/21 06:34:41;;;;;;;3.95;2.75;;;;;;;13.17;64.21;100853.16;5065834;28;20482;-77
2021/05/21 06:37:07;;;;;;;3.10;2.60;;;;;;;13.35;62.96;100857.31;5059727;28;20075;-76
2021/05/21 06:39:32;;;;;;;2.97;2.63;;;;;;;13.57;61.91;100847.94;5061499;28;20036;-77
2021/05/21 06:41:58;;;;;;;3.38;2.38;;;;;;;13.87;61.33;100859.88;5075403;28;20031;-76
2021/05/21 06:44:24;;;;;;;4.88;2.55;;;;;;;13.36;61.51;100851.66;5057109;28;20063;-77
2021/05/21 06:46:49;;;;;;;5.40;2.38;;;;;;;13.05;62.98;100841.78;5072661;28;20107;-77
2021/05/21 06:49:15;;;;;;;3.28;2.53;;;;;;;13.27;62.41;100845.94;5076110;28;20028;-76
2021/05/21 06:51:41;;;;;;;3.40;2.80;;;;;;;13.47;62.50;100841.75;5065563;28;20023;-77
2021/05/21 06:54:08;;;;;;;4.38;2.63;;;;;;;13.97;60.07;100838.31;5076588;28;20028;-77
2021/05/21 06:56:39;;;;;;;2.78;2.33;;;;;;;14.00;61.77;100835.09;5074690;28;20104;-75
2021/05/21 06:59:05;;;;;;;3.00;2.70;;;;;;;14.19;60.56;100819.22;5073697;28;20697;-77
2021/05/21 07:01:31;;;;;;;2.95;2.40;;;;;;;14.63;58.89;100822.16;5064254;28;20028;-76
2021/05/21 07:03:57;;;;;;;5.07;3.30;;;;;;;14.74;58.26;100812.16;5077877;28;20021;-79
2021/05/21 07:06:23;;;;;;;3.58;2.33;;;;;;;14.46;58.92;100810.84;5060603;28;20060;-80
2021/05/21 07:08:50;;;;;;;5.20;2.90;;;;;;;14.99;57.20;100801.28;5068187;28;20116;-80
2021/05/21 07:11:16;;;;;;;2.63;2.42;;;;;;;15.25;57.36;100798.44;5071209;28;20484;-80
2021/05/21 07:13:42;;;;;;;2.35;2.13;;;;;;;15.06;56.80;100788.28;5079616;28;20024;-80
2021/05/21 07:16:07;;;;;;;2.35;2.15;;;;;;;15.03;56.81;100782.63;5073943;28;20473;-80
2021/05/21 07:18:32;;;;;;;2.67;2.03;;;;;;;15.45;55.98;100773.25;5059363;28;20028;-80
2021/05/21 07:21:02;;;;;;;2.15;1.95;;;;;;;15.58;54.96;100772.59;5067536;28;20031;-79
2021/05/21 07:23:31;;;;;;;3.17;2.10;;;;;;;15.77;55.48;100762.78;5076646;28;20035;-80
2021/05/21 07:25:56;;;;;;;4.30;2.47;;;;;;;15.85;55.61;100766.78;5081268;28;20027;-78
2021/05/21 07:28:24;;;;;;;2.75;1.95;;;;;;;15.91;52.31;100771.84;5072893;28;20032;-78
2021/05/21 07:30:50;;;;;;;3.03;1.80;;;;;;;15.78;53.23;100758.97;5065305;28;20134;-78
2021/05/21 07:33:16;;;;;;;2.45;1.92;;;;;;;15.83;52.35;100750.84;5083304;28;20020;-78
2021/05/21 07:35:41;;;;;;;2.17;1.50;;;;;;;16.05;51.16;100755.00;5066491;28;20129;-78
2021/05/21 07:38:07;;;;;;;1.90;1.60;;;;;;;16.19;50.73;100750.53;5062712;28;20028;-76
2021/05/21 07:40:32;;;;;;;2.85;1.90;;;;;;;16.23;51.04;100741.56;5075665;28;21343;-78
2021/05/21 07:42:58;;;;;;;2.58;1.77;;;;;;;16.18;51.81;100733.53;5066107;28;20035;-79
2021/05/21 07:45:23;;;;;;;1.65;1.50;;;;;;;16.57;50.65;100732.56;5068206;28;20107;-80
2021/05/21 07:47:49;;;;;;;1.45;1.30;;;;;;;16.38;50.56;100723.59;5067582;28;20024;-79
2021/05/21 07:50:15;;;;;;;2.88;1.60;;;;;;;16.39;50.32;100717.88;5082392;28;20490;-78
2021/05/21 07:52:41;;;;;;;2.00;1.80;;;;;;;16.31;51.07;100721.19;5068701;28;20043;-78
2021/05/21 07:55:08;;;;;;;1.83;1.45;;;;;;;16.61;49.62;100715.47;5081844;28;20103;-79
2021/05/21 07:57:35;;;;;;;2.67;1.83;;;;;;;16.97;49.70;100712.34;5083211;28;20077;-79
2021/05/21 08:00:01;;;;;;;3.75;1.88;;;;;;;17.00;50.14;100710.94;5069277;28;20025;-79
2021/05/21 08:02:27;;;;;;;1.63;1.38;;;;;;;16.92;51.45;100705.09;5081968;28;20547;-80
2021/05/21 08:04:52;;;;;;;1.40;1.30;;;;;;;16.88;48.56;100700.56;5059213;28;20535;-75
2021/05/21 08:07:18;;;;;;;2.05;1.67;;;;;;;17.61;49.60;100694.59;5079173;28;20031;-79
2021/05/21 08:09:48;;;;;;;3.83;1.45;;;;;;;17.73;49.92;100677.88;5062601;28;20025;-80
2021/05/21 08:12:14;;;;;;;1.70;1.48;;;;;;;17.55;48.90;100674.09;5079264;28;20135;-81
2021/05/21 08:14:39;;;;;;;1.98;1.50;;;;;;;17.59;48.98;100672.38;5080488;28;20054;-80
2021/05/21 08:17:04;;;;;;;3.25;1.10;;;;;;;17.98;44.28;100661.19;5082133;28;20109;-81
2021/05/21 08:19:30;;;;;;;5.03;0.90;;;;;;;17.74;42.63;100658.63;5066541;28;20038;-78
2021/05/21 08:21:55;;;;;;;2.03;1.60;;;;;;;17.40;46.03;100655.38;5077333;28;20021;-77
2021/05/21 08:24:21;;;;;;;2.45;1.10;;;;;;;17.23;45.77;100661.31;5073481;28;20067;-77
2021/05/21 08:26:46;;;;;;;1.10;1.00;;;;;;;17.28;45.36;100657.75;5059681;28;20032;-76
2021/05/21 08:29:12;;;;;;;2.03;1.35;;;;;;;17.97;45.00;100646.03;5074936;28;20621;-79
2021/05/21 08:31:37;;;;;;;1.00;0.90;;;;;;;17.89;44.93;100637.78;5063816;28;20028;-79
2021/05/21 08:34:03;;;;;;;1.75;1.10;;;;;;;17.86;42.18;100639.19;5063586;28;20967;-75
2021/05/21 08:36:29;;;;;;;1.25;0.90;;;;;;;18.14;42.43;100631.88;5080308;28;20028;-80
2021/05/21 08:38:54;;;;;;;1.98;1.08;;;;;;;18.11;44.19;100624.31;5078999;28;20020;-80
2021/05/21 08:41:27;;;;;;;1.73;1.10;;;;;;;18.57;42.77;100626.91;5062809;28;20035;-78
2021/05/21 08:43:53;;;;;;;1.55;1.33;;;;;;;17.91;42.81;100614.69;5079049;28;20016;-75
2021/05/21 08:46:21;;;;;;;1.50;1.15;;;;;;;18.25;42.76;100608.88;5062013;28;20035;-78
2021/05/21 08:48:47;;;;;;;2.38;1.02;;;;;;;18.21;43.33;100615.19;5081824;28;20123;-78
2021/05/21 08:51:17;;;;;;;2.50;1.00;;;;;;;17.95;42.36;100612.16;5081969;28;20052;-78
2021/05/21 08:53:43;;;;;;;1.98;0.88;;;;;;;18.23;42.69;100605.66;5062151;28;20078;-81
2021/05/21 08:56:09;;;;;;;0.90;0.70;;;;;;;18.21;40.62;100617.91;5078271;28;20023;-79
2021/05/21 08:58:35;;;;;;;1.80;0.90;;;;;;;18.37;41.87;100600.22;5083476;28;20016;-80
2021/05/21 09:01:02;;;;;;;1.40;1.08;;;;;;;18.69;40.33;100591.97;5062170;28;20021;-78
2021/05/21 09:03:30;;;;;;;2.42;0.88;;;;;;;18.49;41.15;100594.25;5078402;28;20036;-79
2021/05/21 09:06:22;;;;;;;1.15;1.05;;;;;;;18.73;40.94;100585.91;5063560;28;20051;-81
2021/05/21 09:08:56;;;;;;;3.10;1.15;;;;;;;18.82;40.08;100592.19;5068892;28;20311;-76
2021/05/21 09:11:21;;;;;;;1.23;0.95;;;;;;;19.10;40.08;100590.19;5078077;28;20055;-76
2021/05/21 09:13:50;;;;;;;1.17;1.17;;;;;;;18.68;41.08;100578.69;5081936;28;20052;-81
2021/05/21 09:16:19;;;;;;;1.77;0.93;;;;;;;19.17;40.47;100566.13;5067344;28;20039;-82
2021/05/21 09:19:01;;;;;;;0.95;0.82;;;;;;;19.68;39.59;100557.47;5063469;28;20432;-82
2021/05/21 09:21:45;;;;;;;1.27;1.10;;;;;;;19.17;40.17;100560.69;5066262;28;20862;-78
2021/05/21 09:24:11;;;;;;;3.13;1.10;;;;;;;19.65;39.66;100549.94;5083139;28;20478;-82
2021/05/21 09:26:39;;;;;;;1.98;0.95;;;;;;;20.11;39.50;100556.84;5078135;28;20039;-82
2021/05/21 09:29:05;;;;;;;2.30;1.00;;;;;;;19.47;38.71;100556.41;5066926;28;20055;-82
2021/05/21 09:31:30;;;;;;;4.50;0.77;;;;;;;19.71;38.20;100547.88;5060384;28;20487;-82
2021/05/21 09:33:59;;;;;;;0.80;0.80;;;;;;;19.42;37.69;100567.41;5069223;28;20031;-82
2021/05/21 09:36:26;;;;;;;3.63;0.77;;;;;;;19.28;38.14;100567.47;5069066;28;20398;-81
2021/05/21 09:38:57;;;;;;;1.77;0.90;;;;;;;19.20;38.41;100558.13;5062763;28;20024;-78
2021/05/21 09:41:25;;;;;;;0.65;0.60;;;;;;;19.53;37.42;100550.50;5060679;28;20028;-79
2021/05/21 09:43:59;;;;;;;1.10;0.70;;;;;;;19.54;36.85;100549.41;5078254;28;20028;-79
2021/05/21 09:46:37;;;;;;;2.42;0.70;;;;;;;19.62;37.67;100545.16;5077385;28;20064;-80
2021/05/21 09:49:26;;;;;;;3.00;1.10;;;;;;;20.32;37.17;100540.72;5079867;28;20028;-79
2021/05/21 09:51:57;;;;;;;3.92;0.77;;;;;;;20.27;36.47;100538.13;5063509;28;20020;-80
2021/05/21 09:54:22;;;;;;;1.70;1.00;;;;;;;20.34;36.61;100527.59;5077637;28;20024;-82
2021/05/21 09:57:05;;;;;;;2.25;0.90;;;;;;;20.78;36.49;100521.03;5077638;28;20490;-81
2021/05/21 09:59:45;;;;;;;1.65;1.17;;;;;;;19.66;36.04;100531.72;5061621;28;20089;-80
2021/05/21 10:02:38;;;;;;;1.92;1.08;;;;;;;19.70;37.38;100529.97;5062793;28;20025;-79
2021/05/21 10:05:06;;;;;;;1.38;0.82;;;;;;;19.81;35.88;100515.00;5053766;28;20603;-79
2021/05/21 10:07:32;;;;;;;1.30;0.88;;;;;;;20.41;36.76;100514.34;5076417;28;20054;-81
2021/05/21 10:09:58;;;;;;;2.80;0.93;;;;;;;20.30;36.69;100513.03;5061665;28;20617;-81
2021/05/21 10:12:25;;;;;;;1.67;1.00;;;;;;;20.31;37.43;100509.19;5078800;28;20538;-79
2021/05/21 10:14:51;;;;;;;3.58;1.25;;;;;;;19.65;36.56;100501.03;5062246;28;20103;-79
2021/05/21 10:17:24;;;;;;;0.93;0.60;;;;;;;19.51;38.03;100490.22;5065733;28;20548;-78
2021/05/21 10:19:55;;;;;;;2.10;0.77;;;;;;;19.05;36.89;100496.09;5064256;28;20615;-76
2021/05/21 10:22:41;;;;;;;1.15;0.70;;;;;;;19.53;37.63;100481.75;5072522;28;20089;-80
2021/05/21 10:25:24;;;;;;;2.45;0.80;;;;;;;19.52;38.33;100469.28;5059917;28;20035;-81
2021/05/21 10:27:56;;;;;;;4.68;1.25;;;;;;;20.02;38.71;100460.81;5080245;28;20020;-80
2021/05/21 10:30:27;;;;;;;1.45;0.88;;;;;;;20.58;38.15;100454.47;5079267;28;20059;-81
2021/05/21 10:33:17;;;;;;;1.67;0.70;;;;;;;19.44;37.78;100456.50;5072383;28;20248;-80
2021/05/21 10:35:42;;;;;;;1.90;0.73;;;;;;;19.70;36.56;100437.56;5053677;28;22020;-80
2021/05/21 10:38:18;;;;;;;3.70;0.90;;;;;;;20.69;36.01;100436.69;5059450;28;20236;-82
2021/05/21 10:40:44;;;;;;;2.55;0.70;;;;;;;20.52;36.09;100437.50;5077197;28;20027;-80
2021/05/21 10:43:17;;;;;;;2.60;1.08;;;;;;;19.82;36.24;100432.31;5054148;28;20715;-75
2021/05/21 10:45:54;;;;;;;2.63;1.02;;;;;;;19.98;37.46;100430.75;5059478;28;20181;-80
2021/05/21 10:48:27;;;;;;;1.48;0.52;;;;;;;20.16;35.07;100426.13;5074910;28;20035;-75
2021/05/21 10:51:08;;;;;;;1.25;0.50;;;;;;;20.31;34.95;100408.53;5074408;28;20029;-79
2021/05/21 10:53:40;;;;;;;2.83;0.73;;;;;;;20.92;34.93;100395.59;5068526;28;20020;-78
2021/05/21 10:56:05;;;;;;;3.03;0.70;;;;;;;21.24;34.61;100395.03;5074342;28;20044;-79
2021/05/21 10:58:34;;;;;;;0.55;0.50;;;;;;;21.23;34.09;100401.59;5064385;28;20491;-77
2021/05/21 11:01:16;;;;;;;1.45;0.55;;;;;;;20.78;34.32;100395.81;5061068;28;20081;-79
2021/05/21 11:04:07;;;;;;;1.35;0.70;;;;;;;20.66;34.87;100380.16;5063323;28;20028;-79
2021/05/21 11:06:49;;;;;;;2.60;0.70;;;;;;;20.49;36.13;100383.72;5073801;28;20063;-79
2021/05/21 11:09:20;;;;;;;1.20;0.50;;;;;;;20.32;35.31;100378.28;5064676;28;20082;-78
2021/05/21 11:11:48;;;;;;;1.88;0.63;;;;;;;20.23;35.17;100380.19;5057215;28;20036;-77
2021/05/21 11:14:32;;;;;;;1.23;0.80;;;;;;;19.82;36.12;100386.91;5056249;28;20392;-79
2021/05/21 11:17:23;;;;;;;1.10;0.70;;;;;;;20.30;34.50;100357.97;5057378;28;20027;-77
2021/05/21 11:19:50;;;;;;;1.77;0.70;;;;;;;20.89;32.96;100358.16;5046306;28;20048;-78
2021/05/21 11:22:24;;;;;;;1.33;0.57;;;;;;;21.50;33.57;100340.38;5057770;28;20023;-79
2021/05/21 11:24:59;;;;;;;3.08;0.60;;;;;;;21.80;32.62;100341.13;5066401;28;20056;-79
2021/05/21 11:27:26;;;;;;;;;;;;;;;21.80;31.22;100346.59;5058368;28;20043;-76
2021/05/21 11:29:53;;;;;;;1.67;0.80;;;;;;;21.81;31.99;100331.03;5069114;28;19927;-78
2021/05/21 11:32:21;;;;;;;13.07;1.80;;;;;;;22.05;31.17;100322.97;5063184;28;20036;-79